sensor_id;sensor_type;location;lat;lon;timestamp;pressure;altitude;pressure_sealevel;temperature;humidity
62697;BME280;48761;42.680;23.312;2024-01-30T00:01:45;96718.78;;;-0.12;66.54
62697;BME280;48761;42.680;23.312;2024-01-30T00:04:11;96731.84;;;-0.07;66.92
62697;BME280;48761;42.680;23.312;2024-01-30T00:06:37;96739.72;;;-0.07;67.10
62697;BME280;48761;42.680;23.312;2024-01-30T00:09:03;96731.88;;;-0.15;66.71
62697;BME280;48761;42.680;23.312;2024-01-30T00:11:29;96726.56;;;-0.36;66.96
62697;BME280;48761;42.680;23.312;2024-01-30T00:13:55;96741.41;;;-0.17;67.08
62697;BME280;48761;42.680;23.312;2024-01-30T00:16:22;96749.34;;;0.00;66.75
62697;BME280;48761;42.680;23.312;2024-01-30T00:18:48;96723.16;;;-0.06;66.46
62697;BME280;48761;42.680;23.312;2024-01-30T00:21:14;96723.97;;;-0.20;66.65
62697;BME280;48761;42.680;23.312;2024-01-30T00:23:40;96721.41;;;-0.07;66.26
62697;BME280;48761;42.680;23.312;2024-01-30T00:26:06;96738.00;;;0.04;65.86
62697;BME280;48761;42.680;23.312;2024-01-30T00:28:32;96741.50;;;0.00;65.92
62697;BME280;48761;42.680;23.312;2024-01-30T00:30:59;96743.22;;;-0.02;66.15
62697;BME280;48761;42.680;23.312;2024-01-30T00:33:26;96731.84;;;-0.07;66.32
62697;BME280;48761;42.680;23.312;2024-01-30T00:35:52;96696.09;;;-0.33;66.21
62697;BME280;48761;42.680;23.312;2024-01-30T00:38:18;96729.25;;;-0.07;66.25
62697;BME280;48761;42.680;23.312;2024-01-30T00:40:44;96723.19;;;0.09;65.17
62697;BME280;48761;42.680;23.312;2024-01-30T00:43:10;96717.91;;;-0.16;65.85
62697;BME280;48761;42.680;23.312;2024-01-30T00:45:36;96738.81;;;-0.13;66.11
62697;BME280;48761;42.680;23.312;2024-01-30T00:48:03;96731.81;;;-0.26;66.58
62697;BME280;48761;42.680;23.312;2024-01-30T00:50:29;96744.91;;;-0.26;66.90
62697;BME280;48761;42.680;23.312;2024-01-30T00:52:59;96745.78;;;-0.15;66.21
62697;BME280;48761;42.680;23.312;2024-01-30T00:55:25;96696.97;;;-0.22;65.88
62697;BME280;48761;42.680;23.312;2024-01-30T00:57:54;96738.94;;;0.38;64.91
62697;BME280;48761;42.680;23.312;2024-01-30T01:00:20;96726.72;;;0.43;64.79
62697;BME280;48761;42.680;23.312;2024-01-30T01:02:52;96690.06;;;0.15;64.54
62697;BME280;48761;42.680;23.312;2024-01-30T01:05:19;96729.31;;;0.40;64.53
62697;BME280;48761;42.680;23.312;2024-01-30T01:07:51;96699.66;;;0.09;64.85
62697;BME280;48761;42.680;23.312;2024-01-30T01:10:17;96726.72;;;0.43;64.55
62697;BME280;48761;42.680;23.312;2024-01-30T01:12:47;96738.91;;;0.28;65.28
62697;BME280;48761;42.680;23.312;2024-01-30T01:15:25;96694.41;;;-0.02;65.29
62697;BME280;48761;42.680;23.312;2024-01-30T01:18:00;96690.94;;;0.26;64.79
62697;BME280;48761;42.680;23.312;2024-01-30T01:20:26;96700.53;;;0.02;64.78
62697;BME280;48761;42.680;23.312;2024-01-30T01:22:56;96746.75;;;0.28;65.46
62697;BME280;48761;42.680;23.312;2024-01-30T01:25:27;96702.28;;;0.25;64.00
62697;BME280;48761;42.680;23.312;2024-01-30T01:27:58;96728.44;;;0.44;64.33
62697;BME280;48761;42.680;23.312;2024-01-30T01:30:25;96694.44;;;0.27;64.44
62697;BME280;48761;42.680;23.312;2024-01-30T01:32:57;96698.81;;;0.40;64.17
62697;BME280;48761;42.680;23.312;2024-01-30T01:35:24;96743.28;;;0.67;64.26
62697;BME280;48761;42.680;23.312;2024-01-30T01:37:51;96701.41;;;0.43;64.25
62697;BME280;48761;42.680;23.312;2024-01-30T01:40:17;96690.94;;;0.45;64.08
62697;BME280;48761;42.680;23.312;2024-01-30T01:42:46;96711.00;;;0.49;64.00
62697;BME280;48761;42.680;23.312;2024-01-30T01:45:12;96689.19;;;0.09;64.87
62697;BME280;48761;42.680;23.312;2024-01-30T01:47:38;96719.75;;;0.45;64.86
62697;BME280;48761;42.680;23.312;2024-01-30T01:50:05;96699.59;;;-0.09;65.21
62697;BME280;48761;42.680;23.312;2024-01-30T01:52:31;96731.84;;;-0.23;65.44
62697;BME280;48761;42.680;23.312;2024-01-30T01:54:58;96703.97;;;-0.18;65.33
62697;BME280;48761;42.680;23.312;2024-01-30T01:57:24;96723.16;;;-0.16;65.23
62697;BME280;48761;42.680;23.312;2024-01-30T01:59:50;96737.06;;;-0.17;65.28
62697;BME280;48761;42.680;23.312;2024-01-30T02:02:17;96745.75;;;-0.27;66.06
62697;BME280;48761;42.680;23.312;2024-01-30T02:04:45;96745.78;;;-0.26;66.55
62697;BME280;48761;42.680;23.312;2024-01-30T02:07:11;96705.66;;;-0.39;66.12
62697;BME280;48761;42.680;23.312;2024-01-30T02:09:37;96707.28;;;-0.63;66.83
62697;BME280;48761;42.680;23.312;2024-01-30T02:12:03;96698.63;;;-0.52;66.42
62697;BME280;48761;42.680;23.312;2024-01-30T02:14:29;96702.09;;;-0.55;65.90
62697;BME280;48761;42.680;23.312;2024-01-30T02:16:56;96697.72;;;-0.69;66.36
62697;BME280;48761;42.680;23.312;2024-01-30T02:19:24;96729.97;;;-0.52;66.38
62697;BME280;48761;42.680;23.312;2024-01-30T02:21:51;96756.13;;;-0.52;66.78
62697;BME280;48761;42.680;23.312;2024-01-30T02:24:18;96750.91;;;-0.43;66.32
62697;BME280;48761;42.680;23.312;2024-01-30T02:26:51;96692.44;;;-0.76;65.77
62697;BME280;48761;42.680;23.312;2024-01-30T02:29:37;96697.63;;;-0.89;65.96
62697;BME280;48761;42.680;23.312;2024-01-30T02:32:18;96719.47;;;-0.71;66.06
62697;BME280;48761;42.680;23.312;2024-01-30T02:34:44;96718.63;;;-0.64;65.96
62697;BME280;48761;42.680;23.312;2024-01-30T02:37:10;96745.59;;;-0.65;66.63
62697;BME280;48761;42.680;23.312;2024-01-30T02:39:37;96719.31;;;-0.99;66.95
62697;BME280;48761;42.680;23.312;2024-01-30T02:42:03;96673.06;;;-1.21;66.63
62697;BME280;48761;42.680;23.312;2024-01-30T02:44:30;96687.97;;;-1.03;67.29
62697;BME280;48761;42.680;23.312;2024-01-30T02:46:56;96719.41;;;-0.81;67.17
62697;BME280;48761;42.680;23.312;2024-01-30T02:49:22;96706.31;;;-0.90;67.36
62697;BME280;48761;42.680;23.312;2024-01-30T02:51:48;96735.13;;;-0.71;67.38
62697;BME280;48761;42.680;23.312;2024-01-30T02:54:16;96720.22;;;-0.93;66.88
62697;BME280;48761;42.680;23.312;2024-01-30T02:56:46;96745.53;;;-0.81;67.76
62697;BME280;48761;42.680;23.312;2024-01-30T02:59:12;96690.63;;;-0.96;66.55
62697;BME280;48761;42.680;23.312;2024-01-30T03:01:44;96707.16;;;-0.94;66.97
62697;BME280;48761;42.680;23.312;2024-01-30T03:04:11;96743.03;;;-0.55;66.99
62697;BME280;48761;42.680;23.312;2024-01-30T03:06:37;96728.22;;;-0.60;66.21
62697;BME280;48761;42.680;23.312;2024-01-30T03:09:03;96721.34;;;-0.39;66.20
62697;BME280;48761;42.680;23.312;2024-01-30T03:11:30;96711.75;;;-0.35;65.60
62697;BME280;48761;42.680;23.312;2024-01-30T03:13:56;96741.41;;;-0.25;65.61
62697;BME280;48761;42.680;23.312;2024-01-30T03:16:22;96729.19;;;-0.39;65.64
62697;BME280;48761;42.680;23.312;2024-01-30T03:18:48;96714.28;;;-0.55;65.67
62697;BME280;48761;42.680;23.312;2024-01-30T03:21:14;96698.56;;;-0.65;65.20
62697;BME280;48761;42.680;23.312;2024-01-30T03:23:40;96691.53;;;-0.86;65.73
62697;BME280;48761;42.680;23.312;2024-01-30T03:26:06;96716.00;;;-0.67;65.60
62697;BME280;48761;42.680;23.312;2024-01-30T03:28:33;96702.03;;;-0.72;65.30
62697;BME280;48761;42.680;23.312;2024-01-30T03:30:59;96726.34;;;-0.83;65.89
62697;BME280;48761;42.680;23.312;2024-01-30T03:33:38;96674.03;;;-1.02;65.79
62697;BME280;48761;42.680;23.312;2024-01-30T03:36:40;96680.16;;;-0.96;65.34
62697;BME280;48761;42.680;23.312;2024-01-30T03:47:09;96673.13;;;-1.10;64.58
62697;BME280;48761;42.680;23.312;2024-01-30T03:49:40;96696.72;;;-0.88;64.74
62697;BME280;48761;42.680;23.312;2024-01-30T03:52:10;96708.13;;;-0.76;64.55
62697;BME280;48761;42.680;23.312;2024-01-30T03:54:44;96674.97;;;-0.90;64.05
62697;BME280;48761;42.680;23.312;2024-01-30T03:57:17;96667.13;;;-0.92;64.63
62697;BME280;48761;42.680;23.312;2024-01-30T03:59:44;96666.28;;;-0.84;64.02
62697;BME280;48761;42.680;23.312;2024-01-30T04:02:11;96700.38;;;-0.56;63.74
62697;BME280;48761;42.680;23.312;2024-01-30T04:04:37;96701.16;;;-0.68;63.86
62697;BME280;48761;42.680;23.312;2024-01-30T04:07:03;96672.31;;;-0.99;64.39
62697;BME280;48761;42.680;23.312;2024-01-30T04:09:30;96695.13;;;-0.58;63.65
62697;BME280;48761;42.680;23.312;2024-01-30T04:11:56;96700.34;;;-0.54;63.37
62697;BME280;48761;42.680;23.312;2024-01-30T04:14:22;96660.19;;;-0.91;63.95
62697;BME280;48761;42.680;23.312;2024-01-30T04:16:48;96695.94;;;-0.71;63.68
62697;BME280;48761;42.680;23.312;2024-01-30T04:19:14;96661.81;;;-1.12;64.32
62697;BME280;48761;42.680;23.312;2024-01-30T04:21:41;96672.28;;;-1.03;64.41
62697;BME280;48761;42.680;23.312;2024-01-30T04:24:14;96688.00;;;-0.88;64.32
62697;BME280;48761;42.680;23.312;2024-01-30T04:26:42;96694.19;;;-0.78;64.13
62697;BME280;48761;42.680;23.312;2024-01-30T04:29:10;96709.84;;;-0.82;64.13
62697;BME280;48761;42.680;23.312;2024-01-30T04:31:39;96676.63;;;-1.03;64.72
62697;BME280;48761;42.680;23.312;2024-01-30T04:34:28;96732.56;;;-0.60;64.37
62697;BME280;48761;42.680;23.312;2024-01-30T04:37:26;96676.69;;;-0.92;64.48
62697;BME280;48761;42.680;23.312;2024-01-30T04:40:10;96728.19;;;-0.66;64.50
62697;BME280;48761;42.680;23.312;2024-01-30T04:45:49;96722.09;;;-0.60;63.79
62697;BME280;48761;42.680;23.312;2024-01-30T04:48:21;96736.94;;;-0.58;63.90
62697;BME280;48761;42.680;23.312;2024-01-30T04:50:52;96683.63;;;-1.02;64.19
62697;BME280;48761;42.680;23.312;2024-01-30T04:53:26;96740.34;;;-0.68;63.55
62697;BME280;48761;42.680;23.312;2024-01-30T04:56:00;96711.50;;;-0.93;64.42
62697;BME280;48761;42.680;23.312;2024-01-30T04:58:31;96736.88;;;-0.72;63.96
62697;BME280;48761;42.680;23.312;2024-01-30T05:03:34;96703.75;;;-0.77;63.84
62697;BME280;48761;42.680;23.312;2024-01-30T05:06:02;96760.47;;;-0.53;63.10
62697;BME280;48761;42.680;23.312;2024-01-30T05:08:30;96693.19;;;-1.03;63.50
62697;BME280;48761;42.680;23.312;2024-01-30T05:11:01;96759.53;;;-0.69;63.95
62697;BME280;48761;42.680;23.312;2024-01-30T05:13:30;96749.09;;;-0.63;63.74
62697;BME280;48761;42.680;23.312;2024-01-30T05:15:56;96738.63;;;-0.69;63.65
62697;BME280;48761;42.680;23.312;2024-01-30T05:18:23;96740.38;;;-0.71;64.59
62697;BME280;48761;42.680;23.312;2024-01-30T05:20:51;96750.69;;;-0.93;64.87
62697;BME280;48761;42.680;23.312;2024-01-30T05:23:18;96708.78;;;-1.15;64.99
62697;BME280;48761;42.680;23.312;2024-01-30T05:25:44;96707.09;;;-1.07;64.71
62697;BME280;48761;42.680;23.312;2024-01-30T05:28:10;96761.22;;;-0.77;64.92
62697;BME280;48761;42.680;23.312;2024-01-30T05:30:36;96725.47;;;-0.88;64.62
62697;BME280;48761;42.680;23.312;2024-01-30T05:33:02;96760.47;;;-0.56;65.46
62697;BME280;48761;42.680;23.312;2024-01-30T05:35:28;96726.34;;;-0.86;64.90
62697;BME280;48761;42.680;23.312;2024-01-30T05:37:54;96761.22;;;-0.77;65.44
62697;BME280;48761;42.680;23.312;2024-01-30T05:40:20;96722.75;;;-1.04;65.35
62697;BME280;48761;42.680;23.312;2024-01-30T05:42:47;96741.84;;;-1.17;65.56
62697;BME280;48761;42.680;23.312;2024-01-30T05:45:14;96763.84;;;-0.76;65.74
62697;BME280;48761;42.680;23.312;2024-01-30T05:47:40;96750.59;;;-1.06;66.04
62697;BME280;48761;42.680;23.312;2024-01-30T05:50:07;96762.88;;;-0.92;65.37
62697;BME280;48761;42.680;23.312;2024-01-30T05:52:33;96708.75;;;-1.21;65.72
62697;BME280;48761;42.680;23.312;2024-01-30T05:54:59;96728.88;;;-1.00;64.70
62697;BME280;48761;42.680;23.312;2024-01-30T05:57:25;96746.25;;;-1.04;65.15
62697;BME280;48761;42.680;23.312;2024-01-30T05:59:51;96738.50;;;-0.94;64.45
62697;BME280;48761;42.680;23.312;2024-01-30T06:02:17;96756.94;;;-0.58;63.85
62697;BME280;48761;42.680;23.312;2024-01-30T06:04:43;96749.91;;;-0.75;63.99
62697;BME280;48761;42.680;23.312;2024-01-30T06:07:09;96752.44;;;-0.86;63.63
62697;BME280;48761;42.680;23.312;2024-01-30T06:09:35;96745.28;;;-1.21;64.36
62697;BME280;48761;42.680;23.312;2024-01-30T06:12:01;96748.75;;;-1.21;64.90
62697;BME280;48761;42.680;23.312;2024-01-30T06:14:27;96766.97;;;-1.32;65.59
62697;BME280;48761;42.680;23.312;2024-01-30T06:16:53;96774.72;;;-1.38;65.88
62697;BME280;48761;42.680;23.312;2024-01-30T06:19:19;96769.56;;;-1.29;65.52
62697;BME280;48761;42.680;23.312;2024-01-30T06:21:44;96754.91;;;-1.13;64.98
62697;BME280;48761;42.680;23.312;2024-01-30T06:24:10;96771.66;;;-0.77;64.12
62697;BME280;48761;42.680;23.312;2024-01-30T06:26:37;96770.06;;;-0.47;64.31
62697;BME280;48761;42.680;23.312;2024-01-30T06:29:03;96770.22;;;-0.06;62.75
62697;BME280;48761;42.680;23.312;2024-01-30T06:31:29;96776.38;;;0.12;62.24
62697;BME280;48761;42.680;23.312;2024-01-30T06:33:54;96742.41;;;0.38;61.61
62697;BME280;48761;42.680;23.312;2024-01-30T06:36:20;96770.31;;;0.78;61.16
62697;BME280;48761;42.680;23.312;2024-01-30T06:38:46;96771.19;;;0.63;60.68
62697;BME280;48761;42.680;23.312;2024-01-30T06:41:12;96770.28;;;1.19;58.91
62697;BME280;48761;42.680;23.312;2024-01-30T06:43:38;96756.38;;;0.95;59.11
62697;BME280;48761;42.680;23.312;2024-01-30T06:46:04;96759.69;;;1.63;58.46
62697;BME280;48761;42.680;23.312;2024-01-30T06:48:30;96777.88;;;1.98;57.48
62697;BME280;48761;42.680;23.312;2024-01-30T06:50:56;96777.16;;;1.66;57.42
62697;BME280;48761;42.680;23.312;2024-01-30T06:53:22;96764.97;;;1.48;57.73
62697;BME280;48761;42.680;23.312;2024-01-30T06:55:48;96739.59;;;1.59;56.17
62697;BME280;48761;42.680;23.312;2024-01-30T06:58:14;96778.34;;;2.66;55.16
62697;BME280;48761;42.680;23.312;2024-01-30T07:00:40;96785.75;;;2.04;53.95
62697;BME280;48761;42.680;23.312;2024-01-30T07:03:06;96779.59;;;2.05;53.62
62697;BME280;48761;42.680;23.312;2024-01-30T07:05:32;96769.06;;;2.10;54.16
62697;BME280;48761;42.680;23.312;2024-01-30T07:07:58;96789.22;;;2.03;53.69
62697;BME280;48761;42.680;23.312;2024-01-30T07:10:24;96784.75;;;2.24;53.34
62697;BME280;48761;42.680;23.312;2024-01-30T07:12:50;96778.53;;;2.42;52.42
62697;BME280;48761;42.680;23.312;2024-01-30T07:15:16;96769.31;;;2.98;53.16
62697;BME280;48761;42.680;23.312;2024-01-30T07:17:42;96765.56;;;3.24;51.50
62697;BME280;48761;42.680;23.312;2024-01-30T07:20:08;96779.09;;;3.74;49.31
62697;BME280;48761;42.680;23.312;2024-01-30T07:22:34;96780.94;;;2.71;50.53
62697;BME280;48761;42.680;23.312;2024-01-30T07:25:00;96780.59;;;1.77;51.59
62697;BME280;48761;42.680;23.312;2024-01-30T07:27:26;96783.31;;;1.55;52.10
62697;BME280;48761;42.680;23.312;2024-01-30T07:29:52;96784.84;;;2.07;51.70
62697;BME280;48761;42.680;23.312;2024-01-30T07:32:18;96784.75;;;2.27;50.01
62697;BME280;48761;42.680;23.312;2024-01-30T07:34:44;96781.16;;;2.42;50.60
62697;BME280;48761;42.680;23.312;2024-01-30T07:37:10;96778.31;;;2.72;49.64
62697;BME280;48761;42.680;23.312;2024-01-30T07:39:36;96773.34;;;3.39;48.41
62697;BME280;48761;42.680;23.312;2024-01-30T07:42:02;96752.44;;;3.23;48.09
62697;BME280;48761;42.680;23.312;2024-01-30T07:44:28;96770.22;;;3.81;47.13
62697;BME280;48761;42.680;23.312;2024-01-30T07:46:54;96751.03;;;3.71;47.08
62697;BME280;48761;42.680;23.312;2024-01-30T07:49:19;96762.84;;;4.08;46.36
62697;BME280;48761;42.680;23.312;2024-01-30T07:51:45;96749.88;;;3.92;46.38
62697;BME280;48761;42.680;23.312;2024-01-30T07:54:11;96778.13;;;2.94;47.37
62697;BME280;48761;42.680;23.312;2024-01-30T07:56:38;96756.56;;;2.54;48.34
62697;BME280;48761;42.680;23.312;2024-01-30T07:59:04;96751.78;;;3.00;47.93
62697;BME280;48761;42.680;23.312;2024-01-30T08:01:30;96747.38;;;3.06;47.74
62697;BME280;48761;42.680;23.312;2024-01-30T08:03:56;96768.38;;;3.07;48.40
62697;BME280;48761;42.680;23.312;2024-01-30T08:06:22;96767.50;;;3.07;47.27
62697;BME280;48761;42.680;23.312;2024-01-30T08:08:48;96751.56;;;3.25;47.25
62697;BME280;48761;42.680;23.312;2024-01-30T08:11:14;96765.47;;;3.34;47.33
62697;BME280;48761;42.680;23.312;2024-01-30T08:13:41;96753.53;;;3.03;47.94
62697;BME280;48761;42.680;23.312;2024-01-30T08:16:07;96759.19;;;3.47;47.12
62697;BME280;48761;42.680;23.312;2024-01-30T08:18:33;96747.75;;;3.52;47.12
62697;BME280;48761;42.680;23.312;2024-01-30T08:20:59;96768.78;;;2.60;48.32
62697;BME280;48761;42.680;23.312;2024-01-30T08:23:24;96767.59;;;2.94;48.64
62697;BME280;48761;42.680;23.312;2024-01-30T08:25:51;96750.06;;;2.98;47.68
62697;BME280;48761;42.680;23.312;2024-01-30T08:28:16;96761.97;;;3.35;46.86
62697;BME280;48761;42.680;23.312;2024-01-30T08:30:42;96750.34;;;3.56;46.93
62697;BME280;48761;42.680;23.312;2024-01-30T08:33:09;96770.81;;;4.03;46.45
62697;BME280;48761;42.680;23.312;2024-01-30T08:35:34;96767.66;;;3.76;46.40
62697;BME280;48761;42.680;23.312;2024-01-30T08:38:00;96775.31;;;3.94;46.63
62697;BME280;48761;42.680;23.312;2024-01-30T08:40:26;96773.47;;;4.02;46.39
62697;BME280;48761;42.680;23.312;2024-01-30T08:42:52;96745.84;;;3.66;46.21
62697;BME280;48761;42.680;23.312;2024-01-30T08:45:18;96742.13;;;3.83;45.42
62697;BME280;48761;42.680;23.312;2024-01-30T08:47:44;96753.59;;;3.77;46.36
62697;BME280;48761;42.680;23.312;2024-01-30T08:50:10;96780.47;;;4.03;45.59
62697;BME280;48761;42.680;23.312;2024-01-30T08:52:36;96763.75;;;3.33;46.84
62697;BME280;48761;42.680;23.312;2024-01-30T08:55:02;96773.59;;;3.89;46.25
62697;BME280;48761;42.680;23.312;2024-01-30T08:57:28;96781.78;;;4.35;45.57
62697;BME280;48761;42.680;23.312;2024-01-30T08:59:55;96767.78;;;4.33;45.18
62697;BME280;48761;42.680;23.312;2024-01-30T09:02:20;96789.13;;;3.34;47.30
62697;BME280;48761;42.680;23.312;2024-01-30T09:04:46;96767.59;;;3.79;46.93
62697;BME280;48761;42.680;23.312;2024-01-30T09:07:12;96779.13;;;3.67;47.63
62697;BME280;48761;42.680;23.312;2024-01-30T09:09:41;96792.28;;;3.67;47.31
62697;BME280;48761;42.680;23.312;2024-01-30T09:12:07;96788.97;;;3.51;48.22
62697;BME280;48761;42.680;23.312;2024-01-30T09:14:33;96778.22;;;4.40;46.66
62697;BME280;48761;42.680;23.312;2024-01-30T09:17:00;96782.25;;;4.01;48.72
62697;BME280;48761;42.680;23.312;2024-01-30T09:19:25;96785.50;;;4.22;48.60
62697;BME280;48761;42.680;23.312;2024-01-30T09:21:51;96780.16;;;4.25;48.41
62697;BME280;48761;42.680;23.312;2024-01-30T09:24:17;96748.25;;;3.84;48.64
62697;BME280;48761;42.680;23.312;2024-01-30T09:26:43;96744.28;;;3.46;48.63
62697;BME280;48761;42.680;23.312;2024-01-30T09:29:09;96764.25;;;2.78;49.63
62697;BME280;48761;42.680;23.312;2024-01-30T09:31:35;96772.22;;;2.67;51.09
62697;BME280;48761;42.680;23.312;2024-01-30T09:34:01;96758.88;;;2.92;51.26
62697;BME280;48761;42.680;23.312;2024-01-30T09:36:27;96742.97;;;1.83;52.71
62697;BME280;48761;42.680;23.312;2024-01-30T09:38:53;96734.38;;;2.87;51.15
62697;BME280;48761;42.680;23.312;2024-01-30T09:41:20;96753.47;;;3.11;51.03
62697;BME280;48761;42.680;23.312;2024-01-30T09:43:50;96768.94;;;2.30;52.73
62697;BME280;48761;42.680;23.312;2024-01-30T09:46:17;96752.94;;;2.66;52.00
62697;BME280;48761;42.680;23.312;2024-01-30T09:48:43;96749.69;;;2.38;52.27
62697;BME280;48761;42.680;23.312;2024-01-30T09:51:14;96754.16;;;2.20;52.86
62697;BME280;48761;42.680;23.312;2024-01-30T09:53:42;96769.78;;;2.42;52.44
62697;BME280;48761;42.680;23.312;2024-01-30T09:56:08;96763.09;;;1.83;53.52
62697;BME280;48761;42.680;23.312;2024-01-30T09:58:34;96740.09;;;2.29;52.53
62697;BME280;48761;42.680;23.312;2024-01-30T10:01:00;96757.16;;;2.88;51.40
62697;BME280;48761;42.680;23.312;2024-01-30T10:03:27;96756.38;;;3.65;49.99
62697;BME280;48761;42.680;23.312;2024-01-30T10:05:53;96759.44;;;3.25;49.84
62697;BME280;48761;42.680;23.312;2024-01-30T10:08:21;96744.75;;;3.83;49.44
62697;BME280;48761;42.680;23.312;2024-01-30T10:10:47;96719.16;;;3.23;49.78
62697;BME280;48761;42.680;23.312;2024-01-30T10:13:13;96725.09;;;3.40;50.00
62697;BME280;48761;42.680;23.312;2024-01-30T10:15:39;96711.63;;;2.87;50.00
62697;BME280;48761;42.680;23.312;2024-01-30T10:18:05;96713.22;;;3.06;50.44
62697;BME280;48761;42.680;23.312;2024-01-30T10:20:32;96740.94;;;3.35;49.88
62697;BME280;48761;42.680;23.312;2024-01-30T10:22:58;96724.88;;;3.57;49.14
62697;BME280;48761;42.680;23.312;2024-01-30T10:25:25;96720.38;;;3.68;48.54
62697;BME280;48761;42.680;23.312;2024-01-30T10:27:53;96737.69;;;3.85;48.18
62697;BME280;48761;42.680;23.312;2024-01-30T10:30:19;96698.75;;;3.44;48.58
62697;BME280;48761;42.680;23.312;2024-01-30T10:32:45;96703.53;;;3.08;49.23
62697;BME280;48761;42.680;23.312;2024-01-30T10:35:12;96713.44;;;2.80;50.45
62697;BME280;48761;42.680;23.312;2024-01-30T10:37:39;96721.94;;;3.08;50.00
62697;BME280;48761;42.680;23.312;2024-01-30T10:40:06;96725.97;;;2.50;51.94
62697;BME280;48761;42.680;23.312;2024-01-30T10:42:36;96752.50;;;2.00;51.98
62697;BME280;48761;42.680;23.312;2024-01-30T10:45:07;96733.28;;;2.01;52.43
62697;BME280;48761;42.680;23.312;2024-01-30T10:47:35;96727.94;;;2.17;52.12
62697;BME280;48761;42.680;23.312;2024-01-30T10:50:02;96735.09;;;1.86;52.72
62697;BME280;48761;42.680;23.312;2024-01-30T10:52:28;96724.69;;;1.74;52.94
62697;BME280;48761;42.680;23.312;2024-01-30T10:54:56;96710.75;;;1.64;53.17
62697;BME280;48761;42.680;23.312;2024-01-30T10:57:25;96722.84;;;1.88;53.02
62697;BME280;48761;42.680;23.312;2024-01-30T10:59:55;96726.09;;;2.28;52.63
62697;BME280;48761;42.680;23.312;2024-01-30T11:02:23;96691.22;;;2.10;52.30
62697;BME280;48761;42.680;23.312;2024-01-30T11:04:49;96720.28;;;2.97;51.58
62697;BME280;48761;42.680;23.312;2024-01-30T11:07:17;96717.09;;;2.61;52.00
62697;BME280;48761;42.680;23.312;2024-01-30T11:12:25;96699.00;;;3.22;50.58
62697;BME280;48761;42.680;23.312;2024-01-30T11:20:25;96696.22;;;3.35;50.20
62697;BME280;48761;42.680;23.312;2024-01-30T11:22:53;96681.97;;;2.71;51.10
62697;BME280;48761;42.680;23.312;2024-01-30T11:25:20;96700.09;;;3.78;49.68
62697;BME280;48761;42.680;23.312;2024-01-30T11:27:49;96692.59;;;2.60;51.69
62697;BME280;48761;42.680;23.312;2024-01-30T11:33:04;96685.66;;;2.54;51.71
62697;BME280;48761;42.680;23.312;2024-01-30T11:35:32;96698.34;;;3.01;51.41
62697;BME280;48761;42.680;23.312;2024-01-30T11:37:59;96698.19;;;3.16;50.82
62697;BME280;48761;42.680;23.312;2024-01-30T11:40:30;96681.69;;;3.02;50.76
62697;BME280;48761;42.680;23.312;2024-01-30T11:42:58;96695.72;;;2.98;50.28
62697;BME280;48761;42.680;23.312;2024-01-30T11:45:25;96708.34;;;2.62;51.60
62697;BME280;48761;42.680;23.312;2024-01-30T11:47:52;96671.88;;;2.27;51.81
62697;BME280;48761;42.680;23.312;2024-01-30T11:50:18;96706.88;;;2.26;52.54
62697;BME280;48761;42.680;23.312;2024-01-30T11:52:44;96677.47;;;1.67;53.28
62697;BME280;48761;42.680;23.312;2024-01-30T11:55:10;96683.44;;;1.96;52.98
62697;BME280;48761;42.680;23.312;2024-01-30T11:57:38;96690.50;;;1.86;53.40
62697;BME280;48761;42.680;23.312;2024-01-30T12:00:05;96689.56;;;1.97;53.55
62697;BME280;48761;42.680;23.312;2024-01-30T12:02:31;96636.53;;;1.43;53.51
62697;BME280;48761;42.680;23.312;2024-01-30T12:04:57;96665.06;;;1.98;53.94
62697;BME280;48761;42.680;23.312;2024-01-30T12:07:23;96669.34;;;2.11;53.10
62697;BME280;48761;42.680;23.312;2024-01-30T12:09:55;96665.03;;;2.07;53.89
62697;BME280;48761;42.680;23.312;2024-01-30T12:12:28;96667.66;;;2.03;54.06
62697;BME280;48761;42.680;23.312;2024-01-30T12:14:55;96653.75;;;1.88;53.78
62697;BME280;48761;42.680;23.312;2024-01-30T12:17:32;96639.00;;;1.73;54.48
62697;BME280;48761;42.680;23.312;2024-01-30T12:20:08;96645.03;;;1.86;54.75
62697;BME280;48761;42.680;23.312;2024-01-30T12:22:42;96654.59;;;1.95;54.48
62697;BME280;48761;42.680;23.312;2024-01-30T12:27:36;96636.50;;;2.66;53.88
62697;BME280;48761;42.680;23.312;2024-01-30T12:30:08;96655.41;;;2.03;53.62
62697;BME280;48761;42.680;23.312;2024-01-30T12:32:39;96628.59;;;1.57;54.53
62697;BME280;48761;42.680;23.312;2024-01-30T12:35:13;96643.75;;;2.42;53.94
62697;BME280;48761;42.680;23.312;2024-01-30T12:37:40;96639.75;;;2.93;53.07
62697;BME280;48761;42.680;23.312;2024-01-30T12:40:09;96617.56;;;2.34;52.92
62697;BME280;48761;42.680;23.312;2024-01-30T12:42:36;96641.56;;;1.84;54.31
62697;BME280;48761;42.680;23.312;2024-01-30T12:45:05;96641.50;;;1.93;54.23
62697;BME280;48761;42.680;23.312;2024-01-30T12:47:31;96626.44;;;2.16;53.89
62697;BME280;48761;42.680;23.312;2024-01-30T12:49:58;96607.34;;;1.98;53.88
62697;BME280;48761;42.680;23.312;2024-01-30T12:52:24;96607.44;;;1.85;53.76
62697;BME280;48761;42.680;23.312;2024-01-30T12:54:51;96627.56;;;1.83;54.11
62697;BME280;48761;42.680;23.312;2024-01-30T12:57:17;96635.31;;;2.02;53.79
62697;BME280;48761;42.680;23.312;2024-01-30T12:59:44;96636.31;;;1.81;53.42
62697;BME280;48761;42.680;23.312;2024-01-30T13:02:12;96614.38;;;1.93;53.92
62697;BME280;48761;42.680;23.312;2024-01-30T13:04:38;96593.16;;;2.24;52.92
62697;BME280;48761;42.680;23.312;2024-01-30T13:07:04;96616.63;;;2.41;52.79
62697;BME280;48761;42.680;23.312;2024-01-30T13:09:32;96591.16;;;2.48;52.25
62697;BME280;48761;42.680;23.312;2024-01-30T13:12:00;96577.19;;;2.43;52.31
62697;BME280;48761;42.680;23.312;2024-01-30T13:14:27;96570.31;;;2.34;52.48
62697;BME280;48761;42.680;23.312;2024-01-30T13:16:53;96603.72;;;2.15;54.06
62697;BME280;48761;42.680;23.312;2024-01-30T13:19:20;96582.13;;;1.81;53.97
62697;BME280;48761;42.680;23.312;2024-01-30T13:21:46;96612.66;;;1.92;54.44
62697;BME280;48761;42.680;23.312;2024-01-30T13:24:14;96604.22;;;1.42;55.22